Time;durP1;ratioP1;P1;durP2;ratioP2;P2;SDS_P1;SDS_P2;PMS_P1;PMS_P2;Temp;Humidity;BMP_temperature;BMP_pressure;BME280_temperature;BME280_humidity;BME280_pressure;Samples;Min_cycle;Max_cycle;Signal;HPM_P1;HPM_P2
2022/09/18 00:02:17;;;;;;;;;;;;;;;21.21;59.15;100048.66;5037122;28;4178;-46
2022/09/18 00:04:43;;;;;;;;;;;;;;;21.21;59.07;100040.03;5035837;28;4189;-48
2022/09/18 00:07:09;;;;;;;;;;;;;;;21.20;58.95;100038.53;5034320;28;4179;-48
2022/09/18 00:09:36;;;;;;;;;;;;;;;21.28;57.76;100035.16;5037490;28;4294;-50
2022/09/18 00:12:02;;;;;;;;;;;;;;;21.25;57.74;100037.25;5036994;28;4241;-50
2022/09/18 00:14:29;;;;;;;;;;;;;;;21.24;58.42;100035.78;5038922;28;6294;-49
2022/09/18 00:16:55;;;;;;;;;;;;;;;21.22;58.77;100044.34;5037889;28;6310;-47
2022/09/18 00:19:21;;;;;;;;;;;;;;;21.23;58.09;100045.81;5038125;28;5464;-47
2022/09/18 00:21:48;;;;;;;;;;;;;;;21.22;58.43;100049.38;5036856;28;4147;-50
2022/09/18 00:24:16;;;;;;;;;;;;;;;21.21;58.97;100042.91;5033070;28;5226;-46
2022/09/18 00:26:43;;;;;;;;;;;;;;;21.19;58.77;100044.97;5039038;28;4104;-46
2022/09/18 00:29:09;;;;;;;;;;;;;;;21.21;58.54;100048.66;5038069;28;5451;-49
2022/09/18 00:31:36;;;;;;;;;;;;;;;21.21;58.62;100048.66;5038660;28;4141;-47
2022/09/18 00:34:03;;;;;;;;;;;;;;;21.21;58.54;100042.91;5032265;28;4195;-49
2022/09/18 00:36:29;;;;;;;;;;;;;;;21.25;57.89;100048.75;5054468;28;4269;-50
2022/09/18 00:38:58;;;;;;;;;;;;;;;21.23;58.16;100056.59;5034797;28;5226;-51
2022/09/18 00:41:25;;;;;;;;;;;;;;;21.20;58.02;100055.81;5037425;28;4781;-48
2022/09/18 00:43:51;;;;;;;;;;;;;;;21.21;58.04;100063.06;5039607;28;4186;-46
2022/09/18 00:46:20;;;;;;;;;;;;;;;21.21;58.27;100059.41;5036820;28;4281;-47
2022/09/18 00:48:54;;;;;;;;;;;;;;;21.21;58.06;100060.19;5050835;28;5116;-48
2022/09/18 00:51:21;;;;;;;;;;;;;;;21.24;57.94;100058.81;5050341;28;5076;-47
2022/09/18 00:53:49;;;;;;;;;;;;;;;21.21;58.08;100063.06;5034367;28;4238;-49
2022/09/18 00:56:15;;;;;;;;;;;;;;;21.22;57.95;100067.41;5051882;28;4217;-47
2022/09/18 00:58:42;;;;;;;;;;;;;;;21.24;57.68;100067.47;5036827;28;4269;-47
2022/09/18 01:01:08;;;;;;;;;;;;;;;21.22;57.87;100064.50;5048053;28;4222;-49
2022/09/18 01:03:35;;;;;;;;;;;;;;;21.25;57.56;100066.03;5035970;28;4313;-47
2022/09/18 01:06:05;;;;;;;;;;;;;;;21.23;57.62;100074.59;5050777;28;5278;-49
2022/09/18 01:08:36;;;;;;;;;;;;;;;21.23;57.63;100063.09;5050678;28;4267;-49
2022/09/18 01:11:48;;;;;;;;;;;;;;;21.21;57.49;100065.19;5030762;28;4241;-49
2022/09/18 01:14:27;;;;;;;;;;;;;;;21.23;57.69;100071.00;4976299;28;4188;-49
2022/09/18 01:16:57;;;;;;;;;;;;;;;21.20;57.81;100073.09;4992159;28;4376;-47
2022/09/18 01:19:42;;;;;;;;;;;;;;;21.22;57.59;100073.16;5028077;28;5599;-47
2022/09/18 01:22:21;;;;;;;;;;;;;;;21.20;57.81;100075.25;5046505;28;4171;-49
2022/09/18 01:24:59;;;;;;;;;;;;;;;21.19;57.94;100077.38;5027238;28;4182;-48
2022/09/18 01:27:32;;;;;;;;;;;;;;;21.19;57.68;100074.50;5031723;28;4191;-51
2022/09/18 01:30:02;;;;;;;;;;;;;;;21.20;57.79;100075.97;5027791;28;4194;-49
2022/09/18 01:32:29;;;;;;;;;;;;;;;21.19;57.75;100073.75;5032493;28;4192;-48
2022/09/18 01:35:00;;;;;;;;;;;;;;;21.21;57.40;100071.69;5027454;28;4180;-50
2022/09/18 01:37:51;;;;;;;;;;;;;;;21.17;58.22;100065.81;5021412;28;5501;-46
2022/09/18 01:40:23;;;;;;;;;;;;;;;21.20;57.88;100078.84;5021250;28;6333;-48
2022/09/18 01:42:49;;;;;;;;;;;;;;;21.20;57.59;100075.25;5022712;28;4020;-47
2022/09/18 01:45:16;;;;;;;;;;;;;;;21.17;57.72;100077.31;5006975;28;4029;-46
2022/09/18 01:47:47;;;;;;;;;;;;;;;21.20;57.77;100084.59;5041867;28;4057;-50
2022/09/18 01:50:14;;;;;;;;;;;;;;;21.20;57.76;100081.72;5035862;28;5246;-47
2022/09/18 01:52:42;;;;;;;;;;;;;;;21.17;57.78;100088.09;5032744;28;4222;-47
2022/09/18 01:55:11;;;;;;;;;;;;;;;21.17;57.94;100093.88;5048635;28;4216;-49
2022/09/18 01:57:42;;;;;;;;;;;;;;;21.18;57.51;100090.28;5051575;28;6452;-48
2022/09/18 02:00:12;;;;;;;;;;;;;;;21.16;57.72;100096.00;5036343;28;4331;-48
2022/09/18 02:02:45;;;;;;;;;;;;;;;21.14;57.72;100087.28;5037179;28;4243;-47
2022/09/18 02:05:15;;;;;;;;;;;;;;;21.16;57.44;100098.88;5021641;28;4855;-51
2022/09/18 02:07:46;;;;;;;;;;;;;;;21.16;57.62;100098.88;5017803;28;4253;-48
2022/09/18 02:10:13;;;;;;;;;;;;;;;21.19;57.56;100103.31;5031706;28;4179;-51
2022/09/18 02:12:40;;;;;;;;;;;;;;;21.16;57.83;100098.13;5034734;28;4238;-49
2022/09/18 02:15:10;;;;;;;;;;;;;;;21.15;57.59;100096.69;5013351;28;6296;-49
2022/09/18 02:17:40;;;;;;;;;;;;;;;21.13;57.83;100092.31;5013846;28;4290;-51
2022/09/18 02:20:09;;;;;;;;;;;;;;;21.16;57.61;100089.50;5047462;28;4135;-48
2022/09/18 02:22:36;;;;;;;;;;;;;;;21.17;57.38;100109.00;5025550;28;4121;-49
2022/09/18 02:25:03;;;;;;;;;;;;;;;21.18;57.24;100096.06;5016564;28;4176;-51
2022/09/18 02:27:29;;;;;;;;;;;;;;;21.18;57.21;100104.69;5032009;28;5281;-51
2022/09/18 02:29:56;;;;;;;;;;;;;;;21.16;57.41;100104.63;5031604;28;4238;-50
2022/09/18 02:32:22;;;;;;;;;;;;;;;21.16;57.36;100110.38;5043850;28;7518;-48
2022/09/18 02:34:49;;;;;;;;;;;;;;;21.16;57.46;100110.38;5012435;28;4696;-49
2022/09/18 02:37:39;;;;;;;;;;;;;;;21.18;57.17;100104.69;5026001;28;5262;-49
2022/09/18 02:40:11;;;;;;;;;;;;;;;21.16;57.68;100109.66;5008322;28;4201;-46
2022/09/18 02:42:45;;;;;;;;;;;;;;;21.14;57.18;100110.31;5023944;28;4058;-47
2022/09/18 02:45:21;;;;;;;;;;;;;;;21.15;57.37;100111.81;5031605;28;4231;-47
2022/09/18 02:47:57;;;;;;;;;;;;;;;21.17;57.55;100108.25;5032755;28;4349;-48
2022/09/18 02:50:26;;;;;;;;;;;;;;;21.17;57.58;100114.75;5043927;28;4153;-49
2022/09/18 02:53:02;;;;;;;;;;;;;;;21.20;57.23;100113.41;5046851;28;4246;-47
2022/09/18 02:55:42;;;;;;;;;;;;;;;21.18;57.24;100107.56;5026101;28;5413;-48
2022/09/18 02:58:11;;;;;;;;;;;;;;;21.16;57.31;100113.25;5023287;28;5352;-48
2022/09/18 03:00:40;;;;;;;;;;;;;;;21.15;57.41;100122.59;5049021;28;4244;-47
2022/09/18 03:03:13;;;;;;;;;;;;;;;21.17;57.26;100111.88;5049149;28;5284;-47
2022/09/18 03:05:46;;;;;;;;;;;;;;;21.12;57.67;100127.56;5050175;28;4235;-51
2022/09/18 03:08:12;;;;;;;;;;;;;;;21.12;57.41;100128.28;5050148;28;5335;-48
2022/09/18 03:10:40;;;;;;;;;;;;;;;21.14;57.49;100121.84;5046757;28;4239;-47
2022/09/18 03:13:07;;;;;;;;;;;;;;;21.11;57.80;100126.78;5034249;28;5232;-49
2022/09/18 03:15:34;;;;;;;;;;;;;;;21.10;57.55;100119.56;5049721;28;4242;-48
2022/09/18 03:18:00;;;;;;;;;;;;;;;21.09;57.79;100126.72;5035573;28;4258;-51
2022/09/18 03:20:27;;;;;;;;;;;;;;;21.10;57.46;100133.25;5038238;28;4247;-47
2022/09/18 03:22:53;;;;;;;;;;;;;;;21.09;57.86;100140.38;5031085;28;5486;-47
2022/09/18 03:25:20;;;;;;;;;;;;;;;21.12;57.42;100144.81;5034440;28;4205;-49
2022/09/18 03:27:46;;;;;;;;;;;;;;;21.14;57.33;100136.22;5047052;28;4112;-51
2022/09/18 03:30:23;;;;;;;;;;;;;;;21.09;57.74;100140.38;5050442;28;4179;-46
2022/09/18 03:32:49;;;;;;;;;;;;;;;21.09;57.61;100140.38;5054269;28;4056;-48
2022/09/18 03:35:15;;;;;;;;;;;;;;;21.11;57.68;100143.34;5053860;28;4194;-49
2022/09/18 03:37:42;;;;;;;;;;;;;;;21.10;57.51;100136.84;5033850;28;5674;-48
2022/09/18 03:40:12;;;;;;;;;;;;;;;21.11;57.69;100137.56;5050941;28;4191;-48
2022/09/18 03:42:43;;;;;;;;;;;;;;;21.10;57.49;100147.63;5038666;28;4283;-48
2022/09/18 03:45:11;;;;;;;;;;;;;;;21.09;57.32;100141.13;5052285;28;5558;-47
2022/09/18 03:47:37;;;;;;;;;;;;;;;21.08;57.61;100141.81;5034493;28;4162;-48
2022/09/18 03:50:05;;;;;;;;;;;;;;;21.06;57.68;100151.09;5039166;28;5321;-47
2022/09/18 03:52:35;;;;;;;;;;;;;;;21.06;57.63;100147.50;5036009;28;5246;-48
2022/09/18 03:55:26;;;;;;;;;;;;;;;21.03;57.52;100149.59;5048901;28;5283;-47
2022/09/18 03:58:11;;;;;;;;;;;;;;;21.08;57.35;100156.19;5033447;28;5161;-47
2022/09/18 04:00:49;;;;;;;;;;;;;;;21.06;57.73;100159.75;5045510;28;5490;-48
2022/09/18 04:03:25;;;;;;;;;;;;;;;21.05;57.61;100157.53;5047752;28;4854;-49
2022/09/18 04:06:20;;;;;;;;;;;;;;;21.05;57.72;100163.28;5037837;28;5343;-46
2022/09/18 04:09:06;;;;;;;;;;;;;;;21.04;57.82;100171.19;5034237;28;4075;-46
2022/09/18 04:11:40;;;;;;;;;;;;;;;21.05;57.61;100166.16;5037156;28;5321;-47
2022/09/18 04:14:07;;;;;;;;;;;;;;;21.03;57.69;100161.09;5047690;28;4260;-49
2022/09/18 04:16:33;;;;;;;;;;;;;;;21.05;57.44;100169.78;5035498;28;4220;-50
2022/09/18 04:19:00;;;;;;;;;;;;;;;21.04;57.63;100171.19;5038725;28;4214;-46
2022/09/18 04:21:26;;;;;;;;;;;;;;;21.05;57.51;100174.78;5051310;28;4175;-49
2022/09/18 04:23:52;;;;;;;;;;;;;;;21.05;57.66;100174.78;5047637;28;4290;-48
2022/09/18 04:26:19;;;;;;;;;;;;;;;21.02;57.64;100176.16;5042779;28;4187;-49
2022/09/18 04:28:51;;;;;;;;;;;;;;;21.05;57.54;100174.78;5035449;28;5618;-50
2022/09/18 04:31:18;;;;;;;;;;;;;;;21.06;57.24;100176.28;5041318;28;5481;-48
2022/09/18 04:33:45;;;;;;;;;;;;;;;21.04;57.51;100179.09;5044094;28;4055;-49
2022/09/18 04:36:12;;;;;;;;;;;;;;;21.04;57.33;100176.22;5032948;28;4233;-48
2022/09/18 04:38:38;;;;;;;;;;;;;;;21.00;57.32;100173.94;5032907;28;4249;-46
2022/09/18 04:41:04;;;;;;;;;;;;;;;20.99;57.89;100186.84;5053072;28;4182;-49
2022/09/18 04:43:31;;;;;;;;;;;;;;;21.00;57.72;100184.72;5037637;28;5485;-48
2022/09/18 04:45:58;;;;;;;;;;;;;;;20.99;57.85;100183.97;5036605;28;4222;-51
2022/09/18 04:48:24;;;;;;;;;;;;;;;20.99;57.67;100183.25;5038097;28;4054;-49
2022/09/18 04:50:52;;;;;;;;;;;;;;;20.99;57.53;100189.00;5049454;28;4304;-47
2022/09/18 04:53:20;;;;;;;;;;;;;;;21.01;57.53;100197.72;5038439;28;4390;-48
2022/09/18 04:55:46;;;;;;;;;;;;;;;20.98;57.51;100187.50;5046717;28;4289;-49
2022/09/18 04:58:14;;;;;;;;;;;;;;;21.02;57.51;100193.41;5033934;28;4191;-48
2022/09/18 05:00:43;;;;;;;;;;;;;;;21.00;57.30;100196.22;5031633;28;4122;-47
2022/09/18 05:03:09;;;;;;;;;;;;;;;20.90;56.33;100193.75;5035695;28;4249;-52
2022/09/18 05:05:39;;;;;;;;;;;;;;;20.96;56.09;100196.09;5048414;28;4231;-51
2022/09/18 05:08:06;;;;;;;;;;;;;;;21.02;56.74;100199.16;5044704;28;4589;-50
2022/09/18 05:10:32;;;;;;;;;;;;;;;21.04;56.73;100202.13;5035019;28;4434;-50
2022/09/18 05:13:01;;;;;;;;;;;;;;;21.04;56.92;100202.13;5031249;28;4211;-51
2022/09/18 05:15:27;;;;;;;;;;;;;;;21.03;57.26;100210.03;5049369;28;4086;-52
2022/09/18 05:17:59;;;;;;;;;;;;;;;21.07;57.41;100206.53;5051490;28;4223;-50
2022/09/18 05:20:25;;;;;;;;;;;;;;;21.04;57.34;100213.63;5048269;28;5267;-49
2022/09/18 05:22:53;;;;;;;;;;;;;;;21.03;57.34;100207.16;5026599;28;4374;-48
2022/09/18 05:25:20;;;;;;;;;;;;;;;21.05;57.59;100203.59;5029830;28;4197;-47
2022/09/18 05:27:52;;;;;;;;;;;;;;;21.00;57.88;100217.09;5017546;28;5812;-47
2022/09/18 05:30:21;;;;;;;;;;;;;;;20.97;58.21;100218.44;5017753;28;4166;-51
2022/09/18 05:32:53;;;;;;;;;;;;;;;20.97;57.91;100220.59;5021843;28;4275;-48
2022/09/18 05:35:24;;;;;;;;;;;;;;;20.95;58.45;100227.00;5035001;28;4261;-51
2022/09/18 05:37:51;;;;;;;;;;;;;;;21.01;57.72;100230.09;5037180;28;4250;-48
2022/09/18 05:40:18;;;;;;;;;;;;;;;21.03;57.79;100235.19;5038398;28;5431;-48
2022/09/18 05:42:45;;;;;;;;;;;;;;;21.04;57.49;100231.63;5037118;28;4242;-49
2022/09/18 05:45:13;;;;;;;;;;;;;;;21.05;57.49;100226.59;5038964;28;4188;-49
2022/09/18 05:47:40;;;;;;;;;;;;;;;21.06;57.41;100222.34;5039718;28;4234;-54
2022/09/18 05:50:07;;;;;;;;;;;;;;;21.50;59.70;100228.81;5050198;28;5520;-54
2022/09/18 05:52:34;;;;;;;;;;;;;;;21.64;58.13;100237.19;5034519;28;5303;-53
2022/09/18 05:55:01;;;;;;;;;;;;;;;21.51;56.33;100233.19;5045370;28;6249;-52
2022/09/18 05:57:27;;;;;;;;;;;;;;;21.36;55.25;100230.50;5033965;28;4381;-48
2022/09/18 05:59:53;;;;;;;;;;;;;;;20.88;54.48;100236.84;5045579;28;4118;-51
2022/09/18 06:02:20;;;;;;;;;;;;;;;20.74;53.93;100245.72;5050235;28;4159;-55
2022/09/18 06:05:02;;;;;;;;;;;;;;;19.76;51.52;100236.34;5039392;28;5180;-52
2022/09/18 06:07:28;;;;;;;;;;;;;;;19.65;51.44;100238.81;5048020;28;4273;-49
2022/09/18 06:09:55;;;;;;;;;;;;;;;20.12;51.35;100236.28;5033425;28;5286;-48
2022/09/18 06:12:23;;;;;;;;;;;;;;;20.39;51.42;100244.47;5033764;28;4096;-64
2022/09/18 06:14:49;;;;;;;;;;;;;;;20.61;51.87;100238.06;5043394;28;4145;-58
2022/09/18 06:17:16;;;;;;;;;;;;;;;20.64;51.93;100259.75;5044884;28;4228;-62
2022/09/18 06:19:43;;;;;;;;;;;;;;;20.25;49.69;100250.44;5036488;28;5334;-66
2022/09/18 06:22:09;;;;;;;;;;;;;;;20.07;49.23;100247.59;5046946;28;5203;-65
2022/09/18 06:24:36;;;;;;;;;;;;;;;20.31;49.45;100247.03;5049526;28;4165;-65
2022/09/18 06:27:07;;;;;;;;;;;;;;;20.43;49.58;100247.50;5040452;28;4111;-65
2022/09/18 06:29:34;;;;;;;;;;;;;;;20.45;50.07;100253.28;5052272;28;4219;-65
2022/09/18 06:32:08;;;;;;;;;;;;;;;20.62;50.14;100256.81;5049118;28;5247;-65
2022/09/18 06:34:36;;;;;;;;;;;;;;;20.66;50.53;100251.94;5036098;28;4250;-65
2022/09/18 06:37:07;;;;;;;;;;;;;;;20.68;51.02;100257.00;5048612;28;4657;-65
2022/09/18 06:39:40;;;;;;;;;;;;;;;20.70;50.78;100254.19;5037077;28;4198;-65
2022/09/18 06:42:10;;;;;;;;;;;;;;;20.70;51.49;100252.06;5023917;28;5451;-65
2022/09/18 06:44:58;;;;;;;;;;;;;;;20.70;51.95;100251.31;5032363;28;4249;-65
2022/09/18 06:47:28;;;;;;;;;;;;;;;20.71;51.91;100253.53;5031623;28;5148;-65
2022/09/18 06:49:54;;;;;;;;;;;;;;;20.71;52.35;100259.31;5017972;28;5327;-65
2022/09/18 06:52:21;;;;;;;;;;;;;;;20.71;52.65;100261.44;5030492;28;5247;-65
2022/09/18 06:54:47;;;;;;;;;;;;;;;20.71;52.89;100259.31;5016893;28;5399;-65
2022/09/18 06:57:28;;;;;;;;;;;;;;;20.73;53.01;100264.41;5045509;28;4413;-65
2022/09/18 06:59:55;;;;;;;;;;;;;;;20.73;53.16;100261.53;5041289;28;4218;-65
2022/09/18 07:02:21;;;;;;;;;;;;;;;20.71;53.39;100270.09;5040441;28;4263;-65
2022/09/18 07:05:02;;;;;;;;;;;;;;;20.73;53.47;100270.16;5053272;28;5564;-65
2022/09/18 07:07:28;;;;;;;;;;;;;;;20.73;53.71;100273.03;5036784;28;5265;-65
2022/09/18 07:09:55;;;;;;;;;;;;;;;20.74;53.79;100268.75;5045838;28;4122;-65
2022/09/18 07:12:25;;;;;;;;;;;;;;;20.76;53.77;100265.94;5044097;28;4214;-65
2022/09/18 07:14:52;;;;;;;;;;;;;;;20.77;54.00;100269.53;5056838;28;5310;-65
2022/09/18 07:17:20;;;;;;;;;;;;;;;20.77;53.72;100273.16;5038498;28;4255;-65
2022/09/18 07:19:52;;;;;;;;;;;;;;;20.77;53.93;100267.41;5054827;28;4209;-65
2022/09/18 07:22:22;;;;;;;;;;;;;;;20.78;54.10;100268.88;5055998;28;4252;-65
2022/09/18 07:24:48;;;;;;;;;;;;;;;20.80;54.21;100260.34;5052903;28;5265;-65
2022/09/18 07:27:14;;;;;;;;;;;;;;;20.81;53.86;100273.31;5054905;28;4204;-65
2022/09/18 07:29:41;;;;;;;;;;;;;;;20.81;54.48;100264.66;5045699;28;4336;-65
2022/09/18 07:32:11;;;;;;;;;;;;;;;20.83;54.52;100276.25;5037428;28;4127;-65
2022/09/18 07:34:37;;;;;;;;;;;;;;;20.82;54.79;100274.78;5041637;28;4165;-65
2022/09/18 07:37:08;;;;;;;;;;;;;;;20.83;55.10;100270.50;5054327;28;4144;-65
2022/09/18 07:39:34;;;;;;;;;;;;;;;20.82;55.11;100280.53;5046618;28;4239;-65
2022/09/18 07:42:26;;;;;;;;;;;;;;;20.83;55.20;100276.25;5038795;28;4281;-65
2022/09/18 07:44:53;;;;;;;;;;;;;;;20.83;55.23;100270.50;5045313;28;4074;-65
2022/09/18 07:47:20;;;;;;;;;;;;;;;20.84;55.10;100277.72;5038237;28;4218;-65
2022/09/18 07:49:46;;;;;;;;;;;;;;;20.83;55.03;100269.75;5051187;28;4045;-65
2022/09/18 07:52:13;;;;;;;;;;;;;;;20.84;55.02;100266.22;5046310;28;5283;-65
2022/09/18 07:54:46;;;;;;;;;;;;;;;20.85;55.28;100267.69;5055171;28;5155;-65
2022/09/18 07:57:29;;;;;;;;;;;;;;;20.83;55.17;100276.25;5038761;28;4154;-65
2022/09/18 08:00:09;;;;;;;;;;;;;;;20.83;55.35;100276.25;5050773;28;4173;-65
2022/09/18 08:02:40;;;;;;;;;;;;;;;20.84;55.09;100268.34;5041072;28;4168;-65
2022/09/18 08:05:08;;;;;;;;;;;;;;;20.84;55.33;100283.47;5045278;28;5567;-65
2022/09/18 08:07:43;;;;;;;;;;;;;;;20.85;55.06;100267.69;5035812;28;4111;-65
2022/09/18 08:10:29;;;;;;;;;;;;;;;20.85;55.18;100272.72;5041126;28;5802;-65
2022/09/18 08:13:11;;;;;;;;;;;;;;;20.83;55.19;100270.50;5035040;28;4265;-64
2022/09/18 08:15:48;;;;;;;;;;;;;;;20.84;55.24;100269.09;5054943;28;4037;-65
2022/09/18 08:18:30;;;;;;;;;;;;;;;20.85;55.45;100273.44;5050825;28;6087;-65
2022/09/18 08:21:06;;;;;;;;;;;;;;;20.84;55.17;100266.22;5029492;28;5584;-65
2022/09/18 08:23:47;;;;;;;;;;;;;;;20.85;55.38;100276.31;5020476;28;4254;-64
2022/09/18 08:26:14;;;;;;;;;;;;;;;20.86;55.22;100271.31;5036008;28;4212;-64
2022/09/18 08:28:47;;;;;;;;;;;;;;;20.85;55.47;100267.69;5032665;28;5405;-65
2022/09/18 08:31:14;;;;;;;;;;;;;;;20.87;55.24;100275.66;5022920;28;4303;-65
2022/09/18 08:33:40;;;;;;;;;;;;;;;20.86;55.66;100280.66;5031000;28;5227;-65
2022/09/18 08:36:08;;;;;;;;;;;;;;;20.83;55.59;100273.38;5029844;28;4193;-65
2022/09/18 08:38:37;;;;;;;;;;;;;;;20.86;55.50;100274.91;5016192;28;5422;-65
2022/09/18 08:41:27;;;;;;;;;;;;;;;20.86;55.58;100274.91;5048790;28;5268;-65
2022/09/18 08:44:02;;;;;;;;;;;;;;;20.86;55.49;100266.28;5051638;28;4002;-65
2022/09/18 08:46:31;;;;;;;;;;;;;;;20.87;55.49;100269.91;5049480;28;6023;-65
2022/09/18 08:48:57;;;;;;;;;;;;;;;20.86;55.58;100269.16;5018267;28;4554;-65
2022/09/18 08:51:29;;;;;;;;;;;;;;;20.87;55.31;100270.66;5019168;28;4037;-64
2022/09/18 08:53:57;;;;;;;;;;;;;;;20.87;55.48;100276.41;5041946;28;5291;-65
2022/09/18 08:56:34;;;;;;;;;;;;;;;20.87;55.35;100276.41;5055500;28;4144;-65
2022/09/18 08:59:16;;;;;;;;;;;;;;;20.88;55.20;100260.59;5053896;28;4272;-67
2022/09/18 09:01:46;;;;;;;;;;;;;;;20.88;55.35;100259.88;5049713;28;4429;-67
2022/09/18 09:04:18;;;;;;;;;;;;;;;20.88;55.36;100259.88;5054534;28;4289;-66
2022/09/18 09:06:50;;;;;;;;;;;;;;;20.88;55.18;100254.84;5036048;28;4230;-66
2022/09/18 09:09:42;;;;;;;;;;;;;;;20.89;55.42;100259.22;5053311;28;4355;-66
2022/09/18 09:12:15;;;;;;;;;;;;;;;20.88;55.82;100269.22;5037096;28;4168;-66
2022/09/18 09:14:52;;;;;;;;;;;;;;;20.90;55.59;100249.16;5050583;28;4223;-66
2022/09/18 09:17:39;;;;;;;;;;;;;;;20.90;55.18;100259.94;5043506;28;6195;-67
2022/09/18 09:20:20;;;;;;;;;;;;;;;20.91;55.31;100253.53;5036256;28;4218;-67
2022/09/18 09:22:54;;;;;;;;;;;;;;;20.92;55.39;100255.00;5036079;28;4140;-66
2022/09/18 09:25:39;;;;;;;;;;;;;;;20.92;55.35;100252.09;5033943;28;5305;-66
2022/09/18 09:28:15;;;;;;;;;;;;;;;20.92;55.28;100249.22;5043296;28;4196;-67
2022/09/18 09:31:10;;;;;;;;;;;;;;;20.90;55.60;100246.28;5035199;28;4256;-66
2022/09/18 09:33:57;;;;;;;;;;;;;;;20.90;55.75;100252.03;5051687;28;4856;-67
2022/09/18 09:36:42;;;;;;;;;;;;;;;20.92;55.59;100255.00;5038186;28;4309;-66
2022/09/18 09:39:27;;;;;;;;;;;;;;;20.92;55.69;100249.22;5055153;28;4241;-67
2022/09/18 09:42:01;;;;;;;;;;;;;;;20.93;55.69;100259.31;5041472;28;4268;-67
2022/09/18 09:44:32;;;;;;;;;;;;;;;20.93;55.70;100241.31;5035133;28;5144;-67
2022/09/18 09:47:00;;;;;;;;;;;;;;;20.93;55.67;100255.72;5039647;28;4175;-66
2022/09/18 09:49:37;;;;;;;;;;;;;;;20.92;55.67;100255.00;5053071;28;4125;-66
2022/09/18 09:52:07;;;;;;;;;;;;;;;20.92;55.54;100266.50;5037515;28;5581;-67
2022/09/18 09:54:35;;;;;;;;;;;;;;;20.91;55.54;100256.41;5054219;28;4034;-66
2022/09/18 09:57:18;;;;;;;;;;;;;;;20.92;55.54;100254.25;5038721;28;4008;-66
2022/09/18 10:00:08;;;;;;;;;;;;;;;20.92;55.83;100260.75;5053280;28;4295;-67
2022/09/18 10:02:53;;;;;;;;;;;;;;;20.93;55.71;100259.31;5050445;28;6286;-67
2022/09/18 10:05:22;;;;;;;;;;;;;;;20.93;55.64;100250.69;5052923;28;4201;-67
2022/09/18 10:07:50;;;;;;;;;;;;;;;20.95;55.63;100250.03;5053420;28;4171;-66
2022/09/18 10:10:35;;;;;;;;;;;;;;;20.95;55.52;100252.19;5050686;28;4333;-67
2022/09/18 10:13:04;;;;;;;;;;;;;;;20.93;55.83;100247.09;5036499;28;4188;-66
2022/09/18 10:15:35;;;;;;;;;;;;;;;20.93;55.75;100255.72;5034795;28;4219;-66
2022/09/18 10:18:05;;;;;;;;;;;;;;;20.94;56.57;100245.69;5054409;28;5050;-67
2022/09/18 10:20:31;;;;;;;;;;;;;;;20.93;56.03;100244.22;5040700;28;5256;-67
2022/09/18 10:23:00;;;;;;;;;;;;;;;20.92;56.10;100252.09;5052337;28;5318;-67
2022/09/18 10:25:32;;;;;;;;;;;;;;;20.92;55.99;100248.50;5043809;28;4126;-67
2022/09/18 10:27:59;;;;;;;;;;;;;;;20.92;55.96;100252.09;5038255;28;4264;-66
2022/09/18 10:30:26;;;;;;;;;;;;;;;20.93;56.21;100261.47;5036209;28;4266;-67
2022/09/18 10:32:52;;;;;;;;;;;;;;;20.93;56.56;100255.72;5032210;28;4084;-66
2022/09/18 10:35:29;;;;;;;;;;;;;;;20.92;56.32;100249.22;5036483;28;4180;-66
2022/09/18 10:37:56;;;;;;;;;;;;;;;20.93;56.57;100239.19;5053467;28;5319;-66
2022/09/18 10:40:29;;;;;;;;;;;;;;;20.95;56.23;100246.44;5034594;28;4182;-66
2022/09/18 10:42:57;;;;;;;;;;;;;;;20.95;56.29;100234.91;5035882;28;4178;-67
2022/09/18 10:45:35;;;;;;;;;;;;;;;20.95;56.39;100234.91;5041453;28;5073;-66
2022/09/18 10:48:15;;;;;;;;;;;;;;;20.95;56.16;100229.16;5038504;28;4383;-66
2022/09/18 10:50:51;;;;;;;;;;;;;;;20.96;56.27;100231.38;5045590;28;4190;-67
2022/09/18 10:53:31;;;;;;;;;;;;;;;20.97;56.03;100229.22;5048764;28;4785;-66
2022/09/18 10:56:13;;;;;;;;;;;;;;;20.97;55.95;100232.09;5035990;28;4171;-67
2022/09/18 10:58:41;;;;;;;;;;;;;;;20.97;56.11;100226.34;5052485;28;4202;-66
2022/09/18 11:01:08;;;;;;;;;;;;;;;20.98;56.16;100227.81;5033804;28;4261;-65
2022/09/18 11:03:39;;;;;;;;;;;;;;;20.97;56.08;100246.50;5016881;28;5289;-66
2022/09/18 11:06:07;;;;;;;;;;;;;;;20.98;55.98;100250.84;5033481;28;4186;-66
2022/09/18 11:08:35;;;;;;;;;;;;;;;20.98;56.20;100268.09;5037086;28;4240;-66
2022/09/18 11:11:03;;;;;;;;;;;;;;;20.97;56.20;100255.88;5014881;28;4289;-66
2022/09/18 11:13:40;;;;;;;;;;;;;;;20.97;56.20;100247.22;5046562;28;4857;-66
2022/09/18 11:16:07;;;;;;;;;;;;;;;20.97;56.15;100246.50;5046280;28;4038;-66
2022/09/18 11:18:33;;;;;;;;;;;;;;;20.96;55.75;100242.88;5018194;28;4196;-66
2022/09/18 11:21:01;;;;;;;;;;;;;;;20.97;56.10;100238.59;5026778;28;4230;-66
2022/09/18 11:23:29;;;;;;;;;;;;;;;20.97;56.15;100240.75;5012628;28;4307;-66
2022/09/18 11:26:08;;;;;;;;;;;;;;;20.98;56.07;100236.44;5035645;28;5497;-66
2022/09/18 11:28:34;;;;;;;;;;;;;;;20.98;56.22;100228.56;5018968;28;4059;-67
2022/09/18 11:31:12;;;;;;;;;;;;;;;20.99;55.91;100223.53;5033515;28;6361;-67
2022/09/18 11:33:48;;;;;;;;;;;;;;;21.00;56.31;100219.25;5038640;28;4208;-66
2022/09/18 11:36:23;;;;;;;;;;;;;;;21.00;56.37;100213.50;5051672;28;4132;-66
2022/09/18 11:38:50;;;;;;;;;;;;;;;21.01;56.80;100209.22;5034950;28;4203;-66
2022/09/18 11:41:20;;;;;;;;;;;;;;;21.00;56.30;100207.72;5043109;28;4230;-66
2022/09/18 11:43:54;;;;;;;;;;;;;;;21.01;56.19;100203.47;5052032;28;5317;-66
2022/09/18 11:46:39;;;;;;;;;;;;;;;21.03;56.08;100197.78;5051136;28;4146;-66
2022/09/18 11:49:06;;;;;;;;;;;;;;;21.04;56.44;100184.84;5050021;28;4228;-67
2022/09/18 11:51:43;;;;;;;;;;;;;;;21.04;56.26;100187.72;5037516;28;4076;-66
2022/09/18 11:54:11;;;;;;;;;;;;;;;21.06;56.20;100176.28;5040588;28;4483;-66
2022/09/18 11:56:45;;;;;;;;;;;;;;;21.06;56.24;100177.00;5037510;28;4201;-66
2022/09/18 11:59:31;;;;;;;;;;;;;;;21.07;56.48;100183.50;5039726;28;5385;-66
2022/09/18 12:02:04;;;;;;;;;;;;;;;21.06;56.47;100199.31;5053413;28;4223;-66
2022/09/18 12:04:45;;;;;;;;;;;;;;;21.06;56.62;100222.34;5021534;28;4127;-66
2022/09/18 12:07:20;;;;;;;;;;;;;;;21.04;56.59;100196.38;5037200;28;5316;-67
2022/09/18 12:10:11;;;;;;;;;;;;;;;21.04;56.55;100202.13;5040765;28;4237;-66
2022/09/18 12:12:39;;;;;;;;;;;;;;;21.06;56.47;100199.31;5054576;28;5467;-66
2022/09/18 12:15:11;;;;;;;;;;;;;;;21.06;56.49;100193.56;5037616;28;4209;-66
2022/09/18 12:17:54;;;;;;;;;;;;;;;21.08;56.66;100179.22;5056080;28;5600;-66
2022/09/18 12:20:27;;;;;;;;;;;;;;;21.09;56.65;100181.41;5055472;28;4072;-66
2022/09/18 12:22:55;;;;;;;;;;;;;;;21.09;56.69;100178.53;5036271;28;4346;-66
2022/09/18 12:25:27;;;;;;;;;;;;;;;21.09;56.60;100180.69;5045526;28;4158;-66
2022/09/18 12:28:17;;;;;;;;;;;;;;;21.11;56.71;100183.63;5054160;28;5253;-66
2022/09/18 12:30:50;;;;;;;;;;;;;;;21.13;56.56;100180.81;5055009;28;4234;-66
2022/09/18 12:33:42;;;;;;;;;;;;;;;21.13;56.52;100169.31;5052375;28;4218;-66
2022/09/18 12:36:27;;;;;;;;;;;;;;;21.14;56.72;100170.78;5020583;28;5412;-66
2022/09/18 12:39:15;;;;;;;;;;;;;;;21.16;56.71;100173.72;5039259;28;4218;-66
2022/09/18 12:41:48;;;;;;;;;;;;;;;21.17;56.83;100180.22;5038543;28;4149;-66
2022/09/18 12:44:18;;;;;;;;;;;;;;;21.17;56.57;100174.47;5053733;28;4161;-66
2022/09/18 12:46:51;;;;;;;;;;;;;;;21.18;56.54;100170.19;5054267;28;4233;-66
2022/09/18 12:49:26;;;;;;;;;;;;;;;21.18;56.60;100170.19;5050804;28;4529;-66
2022/09/18 12:51:56;;;;;;;;;;;;;;;21.16;56.91;100170.84;5040048;28;3979;-66
2022/09/18 12:54:22;;;;;;;;;;;;;;;21.15;56.86;100178.03;5053937;28;5355;-66
2022/09/18 12:57:01;;;;;;;;;;;;;;;21.14;57.04;100170.78;5039892;28;4154;-66
2022/09/18 12:59:34;;;;;;;;;;;;;;;21.14;56.69;100182.28;5051555;28;4156;-66
2022/09/18 13:02:03;;;;;;;;;;;;;;;21.15;56.85;100183.78;5051021;28;4143;-66
2022/09/18 13:04:30;;;;;;;;;;;;;;;21.15;57.03;100180.16;5048387;28;5366;-66
2022/09/18 13:07:07;;;;;;;;;;;;;;;21.14;56.81;100185.16;5017140;28;4208;-66
2022/09/18 13:09:35;;;;;;;;;;;;;;;21.13;56.84;100189.47;5053388;28;4282;-66
2022/09/18 13:12:03;;;;;;;;;;;;;;;21.13;57.03;100181.56;5055262;28;4272;-66